Terminal Aerodrome Forecast
Issued by NWS

Home | Current Version | Previous Version | Text Only | Print | Product List | Glossary Off
Versions: 1 2 3 4 5 6 7 8 9 10 11 12 13 14 15 16 17 18 19 20 21 22 23 24 25 26 27 28

632
FTUS45 KGGW 221134
TAFGDV
TAF
KGDV 221134Z 2212/2312 31008KT P6SM BKN110
     FM221400 34013KT P6SM VCSH BKN080
     FM221600 35013G21KT P6SM SCT070
     FM230200 35009KT P6SM SCT080=

USA.gov is the U.S. government's official web portal to all federal, state and local government web resources and services.